»·PEaware :: AAL115 KRNO-KSFO

AAL115 :: KRNO-KSFO

FLIGHT INFORMATION

Flight Status: Arrived
Operator:
American Airlines
More flights by this operator :: More flights under this callsign
Pilot: Sergei F. (8485)
Aircraft: BOEING 757-200
(B752)
More flights by this aircraft type
Origin: KRNO Reno/Tahoe Intl
United States
Destination: KSFO San Francisco Intl
United States
More flights between these airports :: More routes between these airports
Route: +ZEFFR6 MRLET LEGGS BDEGA2
File this flight plan on PilotEdge
Remarks:
Altitude:
(Current/Filed)
200ft
Speed:
(Current/Filed)
300kts
Departed: 01-Jan-18 09:00 PM
Arrived: 01-Jan-18 09:56 PM
Distance/Time
Traveled:
167nm/0:56
Distance/Time
To Go:
Arrived

Flight Plot

Page will automatically refresh every two minutes.

Flight plan parsing failed; only flown route is shown


Map Options




Map Legend


Flown Route
Filed Route
Departure Airport
Arrival Airport
Navaid (VOR, NDB)
Fix

Horizontal Profiles

Position Reports

Time Latitude Longitude Heading Altitude Ground
Speed
01-Jan-18 20:06 39.504849 -119.772294 271 4416ft 0kts
01-Jan-18 20:07 39.504849 -119.772294 271 4416ft 0kts
01-Jan-18 20:08 39.504849 -119.772294 271 4416ft 0kts
01-Jan-18 20:09 39.504849 -119.772294 271 4416ft 0kts
01-Jan-18 20:10 39.504849 -119.772294 271 4416ft 0kts
01-Jan-18 20:11 39.504849 -119.772294 271 4416ft 0kts
01-Jan-18 20:12 39.504849 -119.772294 271 4416ft 0kts
01-Jan-18 20:13 39.504849 -119.772294 271 4416ft 0kts
01-Jan-18 20:14 39.504849 -119.772294 271 4416ft 0kts
01-Jan-18 20:15 39.504849 -119.772294 271 4416ft 0kts
01-Jan-18 20:16 39.504849 -119.772294 271 4416ft 0kts
01-Jan-18 20:17 39.504849 -119.772294 271 4416ft 0kts
01-Jan-18 20:18 39.504849 -119.772294 271 4416ft 0kts
01-Jan-18 20:19 39.504849 -119.772294 271 4416ft 0kts
01-Jan-18 20:20 39.504849 -119.772294 271 4416ft 0kts
01-Jan-18 20:21 39.504849 -119.772294 271 4416ft 0kts
01-Jan-18 20:22 39.504849 -119.772294 271 4416ft 0kts
01-Jan-18 20:23 39.504849 -119.772294 271 4416ft 0kts
01-Jan-18 20:24 39.504849 -119.772294 271 4416ft 0kts
01-Jan-18 20:25 39.504849 -119.772294 271 4416ft 0kts
01-Jan-18 20:26 39.504849 -119.772294 271 4416ft 0kts
01-Jan-18 20:27 39.504849 -119.772294 271 4416ft 0kts
01-Jan-18 20:28 39.504849 -119.772294 271 4416ft 0kts
01-Jan-18 20:29 39.504849 -119.772294 271 4416ft 0kts
01-Jan-18 20:30 39.504849 -119.772294 271 4416ft 0kts
01-Jan-18 20:31 39.504849 -119.772294 271 4416ft 0kts
01-Jan-18 20:32 39.504849 -119.772294 271 4416ft 0kts
01-Jan-18 20:33 39.504850 -119.772288 270 4416ft 0kts
01-Jan-18 20:41 39.504850 -119.772289 270 4416ft 0kts
01-Jan-18 20:42 39.504850 -119.772289 270 4416ft 0kts
01-Jan-18 20:43 39.504850 -119.772289 270 4416ft 0kts
01-Jan-18 20:44 39.504850 -119.772289 270 4416ft 0kts
01-Jan-18 20:45 39.504850 -119.772289 270 4416ft 0kts
01-Jan-18 20:46 39.504850 -119.772288 270 4416ft 0kts
01-Jan-18 20:47 39.504850 -119.772288 270 4416ft 0kts
01-Jan-18 20:48 39.504850 -119.772289 270 4416ft 0kts
01-Jan-18 20:49 39.504850 -119.772289 270 4416ft 0kts
01-Jan-18 20:50 39.504850 -119.772289 270 4416ft 0kts
01-Jan-18 20:51 39.504850 -119.772289 270 4416ft 0kts
01-Jan-18 20:52 39.504850 -119.772289 270 4416ft 0kts
01-Jan-18 20:53 39.504850 -119.772289 270 4416ft 0kts
01-Jan-18 20:54 39.504850 -119.772289 270 4416ft 0kts
01-Jan-18 20:55 39.504850 -119.772289 270 4416ft 0kts
01-Jan-18 20:56 39.504811 -119.771761 295 4415ft 2kts
01-Jan-18 20:57 39.504520 -119.771499 355 4414ft 1kts
01-Jan-18 20:58 39.504445 -119.771494 359 4414ft 0kts
01-Jan-18 20:59 39.504445 -119.771494 359 4414ft 0kts
01-Jan-18 21:00 39.504445 -119.771494 359 4414ft 0kts
01-Jan-18 21:01 39.505225 -119.771494 0 4415ft 4kts
01-Jan-18 21:02 39.507524 -119.771490 359 4417ft 12kts
01-Jan-18 21:03 39.511442 -119.771478 359 4420ft 10kts
01-Jan-18 21:04 39.513653 -119.771124 69 4423ft 7kts
01-Jan-18 21:05 39.512906 -119.769223 179 4420ft 6kts
01-Jan-18 21:06 39.506349 -119.769230 180 4415ft 117kts
01-Jan-18 21:07 39.459571 -119.769398 180 6650ft 177kts
01-Jan-18 21:08 39.408784 -119.770089 177 8464ft 195kts
01-Jan-18 21:09 39.347202 -119.769865 180 9894ft 255kts
01-Jan-18 21:10 39.272496 -119.783613 192 12231ft 292kts
01-Jan-18 21:11 39.187915 -119.807833 191 14288ft 332kts
01-Jan-18 21:12 39.097666 -119.850099 222 16215ft 372kts
01-Jan-18 21:13 39.071933 -119.977679 289 18320ft 406kts
01-Jan-18 21:14 39.135931 -120.097991 304 19392ft 407kts
01-Jan-18 21:15 39.188704 -120.223645 284 20400ft 398kts
01-Jan-18 21:16 39.216744 -120.361965 280 20379ft 400kts
01-Jan-18 21:17 39.240457 -120.501993 280 20348ft 402kts
01-Jan-18 21:18 39.263681 -120.643262 280 20347ft 402kts
01-Jan-18 21:19 39.286195 -120.781656 279 20334ft 401kts
01-Jan-18 21:20 39.308929 -120.922549 279 20286ft 401kts
01-Jan-18 21:21 39.323262 -121.063942 260 20271ft 392kts
01-Jan-18 21:22 39.274813 -121.186462 232 20266ft 389kts
01-Jan-18 21:23 39.206791 -121.294721 230 20245ft 389kts
01-Jan-18 21:24 39.137615 -121.400950 230 20213ft 387kts
01-Jan-18 21:25 39.068190 -121.506795 230 20205ft 387kts
01-Jan-18 21:26 38.998874 -121.612078 230 20214ft 387kts
01-Jan-18 21:27 38.938211 -121.703918 229 20221ft 388kts
01-Jan-18 21:28 38.883377 -121.786710 229 20229ft 389kts
01-Jan-18 21:29 38.813164 -121.892409 229 20237ft 389kts
01-Jan-18 21:30 38.731619 -122.014725 229 20240ft 389kts
01-Jan-18 21:31 38.661771 -122.119124 229 19770ft 381kts
01-Jan-18 21:32 38.604556 -122.204387 229 18861ft 377kts
01-Jan-18 21:33 38.538062 -122.303192 229 17138ft 359kts
01-Jan-18 21:34 38.463051 -122.414287 229 15154ft 351kts
01-Jan-18 21:35 38.410441 -122.492462 229 13728ft 345kts
01-Jan-18 21:36 38.349021 -122.583621 229 12032ft 337kts
01-Jan-18 21:37 38.288559 -122.673101 229 11011ft 331kts
01-Jan-18 21:38 38.222674 -122.750351 197 11011ft 310kts
01-Jan-18 21:39 38.138092 -122.741215 168 11011ft 304kts
01-Jan-18 21:40 38.061064 -122.719872 167 11018ft 276kts
01-Jan-18 21:41 37.986531 -122.698385 167 11017ft 274kts
01-Jan-18 21:42 37.914271 -122.677505 167 11018ft 264kts
01-Jan-18 21:43 37.869328 -122.610916 113 10257ft 264kts
01-Jan-18 21:44 37.841309 -122.526502 113 9160ft 258kts
01-Jan-18 21:45 37.813700 -122.444055 112 8067ft 254kts
01-Jan-18 21:46 37.786387 -122.363429 112 7020ft 249kts
01-Jan-18 21:47 37.761685 -122.290600 113 7004ft 219kts
01-Jan-18 21:48 37.738249 -122.219780 113 7006ft 219kts
01-Jan-18 21:49 37.715117 -122.149182 113 7007ft 219kts
01-Jan-18 21:50 37.691705 -122.078259 113 6783ft 223kts
01-Jan-18 21:51 37.667476 -122.006905 113 5642ft 220kts
01-Jan-18 21:52 37.624676 -121.970771 193 4496ft 214kts
01-Jan-18 21:53 37.569375 -121.986977 193 4003ft 189kts
01-Jan-18 21:54 37.520542 -122.007087 235 4016ft 187kts
01-Jan-18 21:55 37.511925 -122.067948 263 4003ft 167kts
01-Jan-18 21:56 37.513525 -122.124443 298 4013ft 160kts
01-Jan-18 21:57 37.533418 -122.172266 298 3301ft 147kts
01-Jan-18 21:58 37.552705 -122.217609 298 2551ft 144kts
01-Jan-18 21:59 37.571269 -122.261851 298 1734ft 140kts
01-Jan-18 22:00 37.589338 -122.305047 297 957ft 137kts
01-Jan-18 22:01 37.607105 -122.347499 298 257ft 135kts
01-Jan-18 22:02 37.619812 -122.377739 295 30ft 11kts
01-Jan-18 22:03 37.618566 -122.379844 158 34ft 7kts
01-Jan-18 22:04 37.617871 -122.380575 259 34ft 0kts
01-Jan-18 22:05 37.617871 -122.380575 259 34ft 0kts
01-Jan-18 22:06 37.617871 -122.380575 259 34ft 0kts
01-Jan-18 22:07 37.617871 -122.380575 259 35ft 0kts
01-Jan-18 22:08 37.617871 -122.380575 259 35ft 0kts
01-Jan-18 22:09 37.617871 -122.380575 259 35ft 0kts
01-Jan-18 22:10 37.617871 -122.380575 259 35ft 0kts

Navigation Log

Ident Type
Flight plan parsing failed, navigation log unavailable